sensor_id;sensor_type;location;lat;lon;timestamp;temperature;humidity
24226;DHT22;51462;51.422;5.514;2022-07-30T00:02:12;20.10;99.90
24226;DHT22;51462;51.422;5.514;2022-07-30T00:04:38;20.00;99.90
24226;DHT22;51462;51.422;5.514;2022-07-30T00:07:03;19.80;99.90
24226;DHT22;51462;51.422;5.514;2022-07-30T00:09:29;19.90;99.90
24226;DHT22;51462;51.422;5.514;2022-07-30T00:11:55;19.90;99.90
24226;DHT22;51462;51.422;5.514;2022-07-30T00:14:20;19.90;99.90
24226;DHT22;51462;51.422;5.514;2022-07-30T00:16:46;20.30;99.90
24226;DHT22;51462;51.422;5.514;2022-07-30T00:19:12;20.00;99.90
24226;DHT22;51462;51.422;5.514;2022-07-30T00:21:37;19.70;99.90
24226;DHT22;51462;51.422;5.514;2022-07-30T00:24:04;19.90;99.90
24226;DHT22;51462;51.422;5.514;2022-07-30T00:26:30;19.80;99.90
24226;DHT22;51462;51.422;5.514;2022-07-30T00:28:55;19.40;99.90
24226;DHT22;51462;51.422;5.514;2022-07-30T00:31:21;19.60;99.90
24226;DHT22;51462;51.422;5.514;2022-07-30T00:33:46;19.70;99.90
24226;DHT22;51462;51.422;5.514;2022-07-30T00:36:12;19.40;99.90
24226;DHT22;51462;51.422;5.514;2022-07-30T00:38:37;19.40;99.90
24226;DHT22;51462;51.422;5.514;2022-07-30T00:41:03;19.60;99.90
24226;DHT22;51462;51.422;5.514;2022-07-30T00:43:28;19.50;99.90
24226;DHT22;51462;51.422;5.514;2022-07-30T00:45:54;19.50;99.90
24226;DHT22;51462;51.422;5.514;2022-07-30T00:48:19;19.20;99.90
24226;DHT22;51462;51.422;5.514;2022-07-30T00:50:45;19.30;99.90
24226;DHT22;51462;51.422;5.514;2022-07-30T00:53:11;19.30;99.90
24226;DHT22;51462;51.422;5.514;2022-07-30T00:55:36;19.40;99.90
24226;DHT22;51462;51.422;5.514;2022-07-30T00:58:02;19.50;99.90
24226;DHT22;51462;51.422;5.514;2022-07-30T01:00:27;19.30;99.90
24226;DHT22;51462;51.422;5.514;2022-07-30T01:02:53;19.10;99.90
24226;DHT22;51462;51.422;5.514;2022-07-30T01:05:19;19.00;99.90
24226;DHT22;51462;51.422;5.514;2022-07-30T01:07:45;19.30;99.90
24226;DHT22;51462;51.422;5.514;2022-07-30T01:10:13;19.40;99.90
24226;DHT22;51462;51.422;5.514;2022-07-30T01:12:39;19.10;99.90
24226;DHT22;51462;51.422;5.514;2022-07-30T01:15:08;19.20;99.90
24226;DHT22;51462;51.422;5.514;2022-07-30T01:17:35;19.60;99.90
24226;DHT22;51462;51.422;5.514;2022-07-30T01:20:32;19.40;99.90
24226;DHT22;51462;51.422;5.514;2022-07-30T01:23:22;19.00;99.90
24226;DHT22;51462;51.422;5.514;2022-07-30T01:25:58;19.00;99.90
24226;DHT22;51462;51.422;5.514;2022-07-30T01:28:31;19.00;99.90
24226;DHT22;51462;51.422;5.514;2022-07-30T01:30:58;19.00;99.90
24226;DHT22;51462;51.422;5.514;2022-07-30T01:33:24;18.80;99.90
24226;DHT22;51462;51.422;5.514;2022-07-30T01:35:51;18.60;99.90
24226;DHT22;51462;51.422;5.514;2022-07-30T01:38:20;18.60;99.90
24226;DHT22;51462;51.422;5.514;2022-07-30T01:40:48;18.30;99.90
24226;DHT22;51462;51.422;5.514;2022-07-30T01:43:15;18.50;99.90
24226;DHT22;51462;51.422;5.514;2022-07-30T01:45:42;18.80;99.90
24226;DHT22;51462;51.422;5.514;2022-07-30T01:48:10;19.00;99.90
24226;DHT22;51462;51.422;5.514;2022-07-30T01:50:38;18.90;99.90
24226;DHT22;51462;51.422;5.514;2022-07-30T01:53:07;18.90;99.90
24226;DHT22;51462;51.422;5.514;2022-07-30T01:55:38;18.70;99.90
24226;DHT22;51462;51.422;5.514;2022-07-30T01:58:05;18.60;99.90
24226;DHT22;51462;51.422;5.514;2022-07-30T02:00:35;18.60;99.90
24226;DHT22;51462;51.422;5.514;2022-07-30T02:03:04;18.50;99.90
24226;DHT22;51462;51.422;5.514;2022-07-30T02:05:32;18.40;99.90
24226;DHT22;51462;51.422;5.514;2022-07-30T02:08:09;18.60;99.90
24226;DHT22;51462;51.422;5.514;2022-07-30T02:13:06;18.80;99.90
24226;DHT22;51462;51.422;5.514;2022-07-30T02:18:17;18.00;99.90
24226;DHT22;51462;51.422;5.514;2022-07-30T02:20:47;18.00;99.90
24226;DHT22;51462;51.422;5.514;2022-07-30T02:23:16;18.00;99.90
24226;DHT22;51462;51.422;5.514;2022-07-30T02:25:46;18.30;99.90
24226;DHT22;51462;51.422;5.514;2022-07-30T02:28:14;18.40;99.90
24226;DHT22;51462;51.422;5.514;2022-07-30T02:30:51;18.20;99.90
24226;DHT22;51462;51.422;5.514;2022-07-30T02:33:21;18.20;99.90
24226;DHT22;51462;51.422;5.514;2022-07-30T02:35:48;18.30;99.90
24226;DHT22;51462;51.422;5.514;2022-07-30T02:38:16;18.20;99.90
24226;DHT22;51462;51.422;5.514;2022-07-30T02:40:43;17.60;99.90
24226;DHT22;51462;51.422;5.514;2022-07-30T02:43:10;17.70;99.90
24226;DHT22;51462;51.422;5.514;2022-07-30T02:45:36;17.80;99.90
24226;DHT22;51462;51.422;5.514;2022-07-30T02:48:04;17.80;99.90
24226;DHT22;51462;51.422;5.514;2022-07-30T02:50:31;18.00;99.90
24226;DHT22;51462;51.422;5.514;2022-07-30T02:52:58;17.70;99.90
24226;DHT22;51462;51.422;5.514;2022-07-30T02:55:27;17.80;99.90
24226;DHT22;51462;51.422;5.514;2022-07-30T02:57:54;17.60;99.90
24226;DHT22;51462;51.422;5.514;2022-07-30T03:00:21;17.70;99.90
24226;DHT22;51462;51.422;5.514;2022-07-30T03:02:48;17.70;99.90
24226;DHT22;51462;51.422;5.514;2022-07-30T03:05:14;17.60;99.90
24226;DHT22;51462;51.422;5.514;2022-07-30T03:07:41;17.80;99.90
24226;DHT22;51462;51.422;5.514;2022-07-30T03:10:08;17.70;99.90
24226;DHT22;51462;51.422;5.514;2022-07-30T03:12:36;17.70;99.90
24226;DHT22;51462;51.422;5.514;2022-07-30T03:15:03;17.80;99.90
24226;DHT22;51462;51.422;5.514;2022-07-30T03:17:34;17.60;99.90
24226;DHT22;51462;51.422;5.514;2022-07-30T03:20:02;17.50;99.90
24226;DHT22;51462;51.422;5.514;2022-07-30T03:22:30;17.20;99.90
24226;DHT22;51462;51.422;5.514;2022-07-30T03:24:57;17.40;99.90
24226;DHT22;51462;51.422;5.514;2022-07-30T03:27:24;17.40;99.90
24226;DHT22;51462;51.422;5.514;2022-07-30T03:29:52;17.50;99.90
24226;DHT22;51462;51.422;5.514;2022-07-30T03:32:18;17.60;99.90
24226;DHT22;51462;51.422;5.514;2022-07-30T03:34:45;17.60;99.90
24226;DHT22;51462;51.422;5.514;2022-07-30T03:37:11;17.60;99.90
24226;DHT22;51462;51.422;5.514;2022-07-30T03:39:38;17.30;99.90
24226;DHT22;51462;51.422;5.514;2022-07-30T03:42:06;17.10;99.90
24226;DHT22;51462;51.422;5.514;2022-07-30T03:44:32;17.10;99.90
24226;DHT22;51462;51.422;5.514;2022-07-30T03:46:59;17.10;99.90
24226;DHT22;51462;51.422;5.514;2022-07-30T03:49:25;17.10;99.90
24226;DHT22;51462;51.422;5.514;2022-07-30T03:51:52;17.10;99.90
24226;DHT22;51462;51.422;5.514;2022-07-30T03:54:18;17.10;99.90
24226;DHT22;51462;51.422;5.514;2022-07-30T03:56:44;17.10;99.90
24226;DHT22;51462;51.422;5.514;2022-07-30T03:59:10;17.20;99.90
24226;DHT22;51462;51.422;5.514;2022-07-30T04:01:37;17.10;99.90
24226;DHT22;51462;51.422;5.514;2022-07-30T04:04:04;16.90;99.90
24226;DHT22;51462;51.422;5.514;2022-07-30T04:06:30;16.80;99.90
24226;DHT22;51462;51.422;5.514;2022-07-30T04:08:56;16.60;99.90
24226;DHT22;51462;51.422;5.514;2022-07-30T04:11:21;16.70;99.90
24226;DHT22;51462;51.422;5.514;2022-07-30T04:13:47;16.60;99.90
24226;DHT22;51462;51.422;5.514;2022-07-30T04:16:21;16.60;99.90
24226;DHT22;51462;51.422;5.514;2022-07-30T04:18:50;16.30;99.90
24226;DHT22;51462;51.422;5.514;2022-07-30T04:21:18;16.40;99.90
24226;DHT22;51462;51.422;5.514;2022-07-30T04:23:46;16.30;99.90
24226;DHT22;51462;51.422;5.514;2022-07-30T04:26:13;16.30;99.90
24226;DHT22;51462;51.422;5.514;2022-07-30T04:28:39;16.40;99.90
24226;DHT22;51462;51.422;5.514;2022-07-30T04:31:05;16.70;99.90
24226;DHT22;51462;51.422;5.514;2022-07-30T04:33:31;16.80;99.90
24226;DHT22;51462;51.422;5.514;2022-07-30T04:35:57;16.80;99.90
24226;DHT22;51462;51.422;5.514;2022-07-30T04:38:22;16.60;99.90
24226;DHT22;51462;51.422;5.514;2022-07-30T04:40:49;16.40;99.90
24226;DHT22;51462;51.422;5.514;2022-07-30T04:43:15;16.20;99.90
24226;DHT22;51462;51.422;5.514;2022-07-30T04:45:41;16.50;99.90
24226;DHT22;51462;51.422;5.514;2022-07-30T04:48:07;16.60;99.90
24226;DHT22;51462;51.422;5.514;2022-07-30T04:50:34;16.80;99.90
24226;DHT22;51462;51.422;5.514;2022-07-30T04:53:02;16.90;99.90
24226;DHT22;51462;51.422;5.514;2022-07-30T04:55:29;16.70;99.90
24226;DHT22;51462;51.422;5.514;2022-07-30T04:57:57;16.60;99.90
24226;DHT22;51462;51.422;5.514;2022-07-30T05:00:23;16.50;99.90
24226;DHT22;51462;51.422;5.514;2022-07-30T05:02:50;16.40;99.90
24226;DHT22;51462;51.422;5.514;2022-07-30T05:05:17;16.50;99.90
24226;DHT22;51462;51.422;5.514;2022-07-30T05:07:43;16.80;99.90
24226;DHT22;51462;51.422;5.514;2022-07-30T05:10:11;16.50;99.90
24226;DHT22;51462;51.422;5.514;2022-07-30T05:12:37;16.60;99.90
24226;DHT22;51462;51.422;5.514;2022-07-30T05:15:07;16.80;99.90
24226;DHT22;51462;51.422;5.514;2022-07-30T05:17:33;17.00;99.90
24226;DHT22;51462;51.422;5.514;2022-07-30T05:19:59;16.70;99.90
24226;DHT22;51462;51.422;5.514;2022-07-30T05:22:24;17.00;99.90
24226;DHT22;51462;51.422;5.514;2022-07-30T05:24:52;16.70;99.90
24226;DHT22;51462;51.422;5.514;2022-07-30T05:27:18;16.40;99.90
24226;DHT22;51462;51.422;5.514;2022-07-30T05:29:45;16.40;99.90
24226;DHT22;51462;51.422;5.514;2022-07-30T05:32:11;16.50;99.90
24226;DHT22;51462;51.422;5.514;2022-07-30T05:34:36;16.40;99.90
24226;DHT22;51462;51.422;5.514;2022-07-30T05:37:08;16.80;99.90
24226;DHT22;51462;51.422;5.514;2022-07-30T05:39:33;17.00;99.90
24226;DHT22;51462;51.422;5.514;2022-07-30T05:41:59;16.80;99.90
24226;DHT22;51462;51.422;5.514;2022-07-30T05:44:24;16.80;99.90
24226;DHT22;51462;51.422;5.514;2022-07-30T05:46:50;16.70;99.90
24226;DHT22;51462;51.422;5.514;2022-07-30T05:49:16;16.70;99.90
24226;DHT22;51462;51.422;5.514;2022-07-30T05:51:42;16.90;99.90
24226;DHT22;51462;51.422;5.514;2022-07-30T05:54:07;16.90;99.90
24226;DHT22;51462;51.422;5.514;2022-07-30T05:56:33;17.10;99.90
24226;DHT22;51462;51.422;5.514;2022-07-30T05:58:58;17.10;99.90
24226;DHT22;51462;51.422;5.514;2022-07-30T06:01:24;17.30;99.90
24226;DHT22;51462;51.422;5.514;2022-07-30T06:03:49;17.10;99.90
24226;DHT22;51462;51.422;5.514;2022-07-30T06:06:15;17.10;99.90
24226;DHT22;51462;51.422;5.514;2022-07-30T06:08:40;17.20;99.90
24226;DHT22;51462;51.422;5.514;2022-07-30T06:11:06;17.20;99.90
24226;DHT22;51462;51.422;5.514;2022-07-30T06:13:33;17.60;99.90
24226;DHT22;51462;51.422;5.514;2022-07-30T06:15:59;17.90;99.90
24226;DHT22;51462;51.422;5.514;2022-07-30T06:18:25;18.10;99.90
24226;DHT22;51462;51.422;5.514;2022-07-30T06:20:51;17.50;99.90
24226;DHT22;51462;51.422;5.514;2022-07-30T06:23:19;17.60;99.90
24226;DHT22;51462;51.422;5.514;2022-07-30T06:25:45;18.00;99.90
24226;DHT22;51462;51.422;5.514;2022-07-30T06:28:11;17.70;99.90
24226;DHT22;51462;51.422;5.514;2022-07-30T06:30:36;18.30;99.90
24226;DHT22;51462;51.422;5.514;2022-07-30T06:33:02;18.40;99.90
24226;DHT22;51462;51.422;5.514;2022-07-30T06:35:27;18.00;99.90
24226;DHT22;51462;51.422;5.514;2022-07-30T06:37:53;17.90;99.90
24226;DHT22;51462;51.422;5.514;2022-07-30T06:40:18;18.20;99.90
24226;DHT22;51462;51.422;5.514;2022-07-30T06:42:44;18.70;99.90
24226;DHT22;51462;51.422;5.514;2022-07-30T06:45:10;18.60;99.90
24226;DHT22;51462;51.422;5.514;2022-07-30T06:47:35;18.40;99.90
24226;DHT22;51462;51.422;5.514;2022-07-30T06:50:01;18.20;99.90
24226;DHT22;51462;51.422;5.514;2022-07-30T06:52:27;18.30;99.90
24226;DHT22;51462;51.422;5.514;2022-07-30T06:54:53;18.20;99.90
24226;DHT22;51462;51.422;5.514;2022-07-30T06:57:18;18.20;99.90
24226;DHT22;51462;51.422;5.514;2022-07-30T06:59:44;18.20;99.90
24226;DHT22;51462;51.422;5.514;2022-07-30T07:02:10;18.50;99.90
24226;DHT22;51462;51.422;5.514;2022-07-30T07:04:35;18.40;99.90
24226;DHT22;51462;51.422;5.514;2022-07-30T07:07:01;18.30;99.90
24226;DHT22;51462;51.422;5.514;2022-07-30T07:09:27;18.50;99.90
24226;DHT22;51462;51.422;5.514;2022-07-30T07:11:52;18.40;99.90
24226;DHT22;51462;51.422;5.514;2022-07-30T07:14:18;18.60;99.90
24226;DHT22;51462;51.422;5.514;2022-07-30T07:16:44;18.70;99.90
24226;DHT22;51462;51.422;5.514;2022-07-30T07:19:09;18.50;99.90
24226;DHT22;51462;51.422;5.514;2022-07-30T07:21:35;18.30;99.90
24226;DHT22;51462;51.422;5.514;2022-07-30T07:24:01;18.50;99.90
24226;DHT22;51462;51.422;5.514;2022-07-30T07:26:27;18.70;99.90
24226;DHT22;51462;51.422;5.514;2022-07-30T07:28:53;18.70;99.90
24226;DHT22;51462;51.422;5.514;2022-07-30T07:31:19;18.80;99.90
24226;DHT22;51462;51.422;5.514;2022-07-30T07:33:44;19.10;99.90
24226;DHT22;51462;51.422;5.514;2022-07-30T07:36:12;19.00;99.90
24226;DHT22;51462;51.422;5.514;2022-07-30T07:38:38;19.00;99.90
24226;DHT22;51462;51.422;5.514;2022-07-30T07:41:03;19.20;99.90
24226;DHT22;51462;51.422;5.514;2022-07-30T07:43:30;19.10;99.90
24226;DHT22;51462;51.422;5.514;2022-07-30T07:45:55;19.50;99.90
24226;DHT22;51462;51.422;5.514;2022-07-30T07:48:21;19.40;99.90
24226;DHT22;51462;51.422;5.514;2022-07-30T07:50:47;19.30;99.90
24226;DHT22;51462;51.422;5.514;2022-07-30T07:53:12;19.10;99.90
24226;DHT22;51462;51.422;5.514;2022-07-30T07:55:38;19.20;99.90
24226;DHT22;51462;51.422;5.514;2022-07-30T07:58:04;19.30;99.90
24226;DHT22;51462;51.422;5.514;2022-07-30T08:00:30;19.20;99.90
24226;DHT22;51462;51.422;5.514;2022-07-30T08:02:55;19.20;99.90
24226;DHT22;51462;51.422;5.514;2022-07-30T08:05:22;19.30;99.90
24226;DHT22;51462;51.422;5.514;2022-07-30T08:07:47;19.40;99.90
24226;DHT22;51462;51.422;5.514;2022-07-30T08:10:13;19.40;99.90
24226;DHT22;51462;51.422;5.514;2022-07-30T08:12:40;19.40;99.90
24226;DHT22;51462;51.422;5.514;2022-07-30T08:15:07;19.30;99.90
24226;DHT22;51462;51.422;5.514;2022-07-30T08:17:42;19.60;99.90
24226;DHT22;51462;51.422;5.514;2022-07-30T08:20:08;19.80;99.90
24226;DHT22;51462;51.422;5.514;2022-07-30T08:22:34;20.00;99.90
24226;DHT22;51462;51.422;5.514;2022-07-30T08:25:00;19.90;99.90
24226;DHT22;51462;51.422;5.514;2022-07-30T08:27:25;19.90;99.90
24226;DHT22;51462;51.422;5.514;2022-07-30T08:29:51;20.00;99.90
24226;DHT22;51462;51.422;5.514;2022-07-30T08:32:17;20.50;99.90
24226;DHT22;51462;51.422;5.514;2022-07-30T08:34:42;20.20;99.90
24226;DHT22;51462;51.422;5.514;2022-07-30T08:37:08;20.00;99.90
24226;DHT22;51462;51.422;5.514;2022-07-30T08:39:33;20.10;99.90
24226;DHT22;51462;51.422;5.514;2022-07-30T08:41:59;20.40;99.90
24226;DHT22;51462;51.422;5.514;2022-07-30T08:44:27;20.40;99.90
24226;DHT22;51462;51.422;5.514;2022-07-30T08:46:55;20.50;99.90
24226;DHT22;51462;51.422;5.514;2022-07-30T08:49:22;21.20;99.90
24226;DHT22;51462;51.422;5.514;2022-07-30T08:51:49;21.20;99.90
24226;DHT22;51462;51.422;5.514;2022-07-30T08:54:16;20.90;99.90
24226;DHT22;51462;51.422;5.514;2022-07-30T08:56:42;20.70;99.90
24226;DHT22;51462;51.422;5.514;2022-07-30T08:59:08;20.60;99.90
24226;DHT22;51462;51.422;5.514;2022-07-30T09:01:34;20.80;99.90
24226;DHT22;51462;51.422;5.514;2022-07-30T09:04:00;20.70;99.90
24226;DHT22;51462;51.422;5.514;2022-07-30T09:06:26;21.10;99.90
24226;DHT22;51462;51.422;5.514;2022-07-30T09:08:51;21.10;99.90
24226;DHT22;51462;51.422;5.514;2022-07-30T09:11:17;21.10;99.90
24226;DHT22;51462;51.422;5.514;2022-07-30T09:13:43;21.00;99.90
24226;DHT22;51462;51.422;5.514;2022-07-30T09:16:24;21.10;99.90
24226;DHT22;51462;51.422;5.514;2022-07-30T09:18:51;21.10;99.90
24226;DHT22;51462;51.422;5.514;2022-07-30T09:21:24;21.50;99.90
24226;DHT22;51462;51.422;5.514;2022-07-30T09:24:00;21.30;99.90
24226;DHT22;51462;51.422;5.514;2022-07-30T09:26:27;21.40;99.90
24226;DHT22;51462;51.422;5.514;2022-07-30T09:28:53;21.40;99.90
24226;DHT22;51462;51.422;5.514;2022-07-30T09:31:20;21.40;99.90
24226;DHT22;51462;51.422;5.514;2022-07-30T09:33:46;21.40;99.90
24226;DHT22;51462;51.422;5.514;2022-07-30T09:36:15;21.50;99.90
24226;DHT22;51462;51.422;5.514;2022-07-30T09:41:13;21.80;99.90
24226;DHT22;51462;51.422;5.514;2022-07-30T09:43:50;21.80;99.90
24226;DHT22;51462;51.422;5.514;2022-07-30T09:46:16;22.00;99.90
24226;DHT22;51462;51.422;5.514;2022-07-30T09:48:43;22.20;99.90
24226;DHT22;51462;51.422;5.514;2022-07-30T09:51:12;22.00;99.90
24226;DHT22;51462;51.422;5.514;2022-07-30T09:53:53;22.10;99.90
24226;DHT22;51462;51.422;5.514;2022-07-30T09:56:27;22.20;99.90
24226;DHT22;51462;51.422;5.514;2022-07-30T09:58:53;22.40;99.90
24226;DHT22;51462;51.422;5.514;2022-07-30T10:01:19;22.50;99.90
24226;DHT22;51462;51.422;5.514;2022-07-30T10:03:45;22.50;99.90
24226;DHT22;51462;51.422;5.514;2022-07-30T10:06:10;22.40;99.90
24226;DHT22;51462;51.422;5.514;2022-07-30T10:08:43;22.40;99.90
24226;DHT22;51462;51.422;5.514;2022-07-30T10:11:14;22.50;99.90
24226;DHT22;51462;51.422;5.514;2022-07-30T10:13:41;22.40;99.90
24226;DHT22;51462;51.422;5.514;2022-07-30T10:16:07;22.60;99.90
24226;DHT22;51462;51.422;5.514;2022-07-30T10:18:33;22.80;99.90
24226;DHT22;51462;51.422;5.514;2022-07-30T10:21:00;22.80;99.90
24226;DHT22;51462;51.422;5.514;2022-07-30T10:23:27;22.90;99.90
24226;DHT22;51462;51.422;5.514;2022-07-30T10:25:58;22.90;99.90
24226;DHT22;51462;51.422;5.514;2022-07-30T10:28:25;22.80;99.90
24226;DHT22;51462;51.422;5.514;2022-07-30T10:30:52;23.20;99.90
24226;DHT22;51462;51.422;5.514;2022-07-30T10:33:21;23.30;99.90
24226;DHT22;51462;51.422;5.514;2022-07-30T10:35:47;23.50;99.90
24226;DHT22;51462;51.422;5.514;2022-07-30T10:38:13;23.60;99.90
24226;DHT22;51462;51.422;5.514;2022-07-30T10:40:59;23.60;99.90
24226;DHT22;51462;51.422;5.514;2022-07-30T10:44:08;23.90;99.90
24226;DHT22;51462;51.422;5.514;2022-07-30T10:47:04;23.90;99.90
24226;DHT22;51462;51.422;5.514;2022-07-30T10:49:31;23.70;99.90
24226;DHT22;51462;51.422;5.514;2022-07-30T10:51:56;23.90;99.90
24226;DHT22;51462;51.422;5.514;2022-07-30T10:54:36;24.00;99.90
24226;DHT22;51462;51.422;5.514;2022-07-30T10:57:15;24.20;99.90
24226;DHT22;51462;51.422;5.514;2022-07-30T11:02:24;24.60;99.90
24226;DHT22;51462;51.422;5.514;2022-07-30T11:04:50;24.60;99.90
24226;DHT22;51462;51.422;5.514;2022-07-30T11:07:35;24.70;99.90
24226;DHT22;51462;51.422;5.514;2022-07-30T11:10:01;24.80;99.90
24226;DHT22;51462;51.422;5.514;2022-07-30T11:15:09;25.00;99.90
24226;DHT22;51462;51.422;5.514;2022-07-30T11:17:57;25.20;99.90
24226;DHT22;51462;51.422;5.514;2022-07-30T11:20:23;25.40;99.90
24226;DHT22;51462;51.422;5.514;2022-07-30T11:22:49;25.40;99.90
24226;DHT22;51462;51.422;5.514;2022-07-30T11:27:48;25.60;99.90
24226;DHT22;51462;51.422;5.514;2022-07-30T11:32:41;25.70;99.90
24226;DHT22;51462;51.422;5.514;2022-07-30T11:43:24;26.00;99.90
24226;DHT22;51462;51.422;5.514;2022-07-30T11:46:13;26.10;99.90
24226;DHT22;51462;51.422;5.514;2022-07-30T11:49:01;26.40;99.90
24226;DHT22;51462;51.422;5.514;2022-07-30T11:51:46;26.70;99.90
24226;DHT22;51462;51.422;5.514;2022-07-30T11:54:12;26.70;99.90
24226;DHT22;51462;51.422;5.514;2022-07-30T11:56:51;26.80;99.90
24226;DHT22;51462;51.422;5.514;2022-07-30T11:59:17;26.80;99.90
24226;DHT22;51462;51.422;5.514;2022-07-30T12:01:49;27.00;99.90
24226;DHT22;51462;51.422;5.514;2022-07-30T12:04:15;27.20;99.90
24226;DHT22;51462;51.422;5.514;2022-07-30T12:06:45;27.30;99.90
24226;DHT22;51462;51.422;5.514;2022-07-30T12:09:11;27.50;99.90
24226;DHT22;51462;51.422;5.514;2022-07-30T12:11:37;27.80;99.90
24226;DHT22;51462;51.422;5.514;2022-07-30T12:14:03;28.10;99.90
24226;DHT22;51462;51.422;5.514;2022-07-30T12:16:30;28.00;99.90
24226;DHT22;51462;51.422;5.514;2022-07-30T12:19:01;28.20;99.90
24226;DHT22;51462;51.422;5.514;2022-07-30T12:21:27;28.10;99.90
24226;DHT22;51462;51.422;5.514;2022-07-30T12:23:57;28.20;99.90
24226;DHT22;51462;51.422;5.514;2022-07-30T12:26:30;28.00;99.90
24226;DHT22;51462;51.422;5.514;2022-07-30T12:28:59;27.70;99.90
24226;DHT22;51462;51.422;5.514;2022-07-30T12:31:25;27.50;99.90
24226;DHT22;51462;51.422;5.514;2022-07-30T12:33:51;27.40;99.90
24226;DHT22;51462;51.422;5.514;2022-07-30T12:36:30;27.60;99.90
24226;DHT22;51462;51.422;5.514;2022-07-30T12:38:56;27.80;99.90
24226;DHT22;51462;51.422;5.514;2022-07-30T12:41:44;27.90;99.90
24226;DHT22;51462;51.422;5.514;2022-07-30T12:44:09;27.90;99.90
24226;DHT22;51462;51.422;5.514;2022-07-30T12:46:39;27.70;99.90
24226;DHT22;51462;51.422;5.514;2022-07-30T12:49:06;27.60;99.90
24226;DHT22;51462;51.422;5.514;2022-07-30T12:51:33;27.90;99.90
24226;DHT22;51462;51.422;5.514;2022-07-30T12:54:06;27.70;99.90
24226;DHT22;51462;51.422;5.514;2022-07-30T12:56:38;27.70;99.90
24226;DHT22;51462;51.422;5.514;2022-07-30T12:59:20;27.60;99.90
24226;DHT22;51462;51.422;5.514;2022-07-30T13:01:46;27.60;99.90
24226;DHT22;51462;51.422;5.514;2022-07-30T13:04:14;28.00;99.90
24226;DHT22;51462;51.422;5.514;2022-07-30T13:06:39;28.60;99.90
24226;DHT22;51462;51.422;5.514;2022-07-30T13:09:06;28.40;99.90
24226;DHT22;51462;51.422;5.514;2022-07-30T13:11:43;28.70;99.90
24226;DHT22;51462;51.422;5.514;2022-07-30T13:14:10;29.00;99.90
24226;DHT22;51462;51.422;5.514;2022-07-30T13:16:37;28.90;99.90
24226;DHT22;51462;51.422;5.514;2022-07-30T13:19:04;28.60;99.90
24226;DHT22;51462;51.422;5.514;2022-07-30T13:21:30;28.80;99.90
24226;DHT22;51462;51.422;5.514;2022-07-30T13:23:55;29.00;99.90
24226;DHT22;51462;51.422;5.514;2022-07-30T13:26:21;28.80;99.90
24226;DHT22;51462;51.422;5.514;2022-07-30T13:28:46;28.80;99.90
24226;DHT22;51462;51.422;5.514;2022-07-30T13:31:12;29.70;99.90
24226;DHT22;51462;51.422;5.514;2022-07-30T13:33:38;29.60;98.50
24226;DHT22;51462;51.422;5.514;2022-07-30T13:36:05;29.40;97.70
24226;DHT22;51462;51.422;5.514;2022-07-30T13:38:31;29.30;99.60
24226;DHT22;51462;51.422;5.514;2022-07-30T13:40:58;29.50;97.80
24226;DHT22;51462;51.422;5.514;2022-07-30T13:43:24;30.20;97.10
24226;DHT22;51462;51.422;5.514;2022-07-30T13:45:50;30.20;98.20
24226;DHT22;51462;51.422;5.514;2022-07-30T13:48:16;30.60;97.70
24226;DHT22;51462;51.422;5.514;2022-07-30T13:50:42;30.40;99.80
24226;DHT22;51462;51.422;5.514;2022-07-30T13:53:08;30.30;96.80
24226;DHT22;51462;51.422;5.514;2022-07-30T13:55:36;30.70;97.00
24226;DHT22;51462;51.422;5.514;2022-07-30T13:58:02;30.30;96.20
24226;DHT22;51462;51.422;5.514;2022-07-30T14:00:28;30.20;95.70
24226;DHT22;51462;51.422;5.514;2022-07-30T14:02:58;31.60;95.20
24226;DHT22;51462;51.422;5.514;2022-07-30T14:05:24;32.00;98.80
24226;DHT22;51462;51.422;5.514;2022-07-30T14:07:49;31.50;95.60
24226;DHT22;51462;51.422;5.514;2022-07-30T14:10:15;31.70;95.60
24226;DHT22;51462;51.422;5.514;2022-07-30T14:12:40;30.90;95.10
24226;DHT22;51462;51.422;5.514;2022-07-30T14:15:06;31.10;95.70
24226;DHT22;51462;51.422;5.514;2022-07-30T14:17:33;30.50;95.50
24226;DHT22;51462;51.422;5.514;2022-07-30T14:19:59;30.40;96.50
24226;DHT22;51462;51.422;5.514;2022-07-30T14:22:25;30.70;95.30
24226;DHT22;51462;51.422;5.514;2022-07-30T14:24:53;31.00;98.80
24226;DHT22;51462;51.422;5.514;2022-07-30T14:27:18;31.00;95.80
24226;DHT22;51462;51.422;5.514;2022-07-30T14:29:45;30.30;94.60
24226;DHT22;51462;51.422;5.514;2022-07-30T14:32:11;30.30;99.90
24226;DHT22;51462;51.422;5.514;2022-07-30T14:34:37;30.40;97.60
24226;DHT22;51462;51.422;5.514;2022-07-30T14:37:03;30.20;95.20
24226;DHT22;51462;51.422;5.514;2022-07-30T14:39:28;30.30;96.70
24226;DHT22;51462;51.422;5.514;2022-07-30T14:41:54;30.60;97.10
24226;DHT22;51462;51.422;5.514;2022-07-30T14:44:20;30.60;99.90
24226;DHT22;51462;51.422;5.514;2022-07-30T14:46:46;30.00;94.80
24226;DHT22;51462;51.422;5.514;2022-07-30T14:49:12;29.90;94.50
24226;DHT22;51462;51.422;5.514;2022-07-30T14:51:37;30.40;99.90
24226;DHT22;51462;51.422;5.514;2022-07-30T14:54:03;30.50;96.50
24226;DHT22;51462;51.422;5.514;2022-07-30T14:56:29;30.70;99.90
24226;DHT22;51462;51.422;5.514;2022-07-30T14:58:54;30.70;94.30
24226;DHT22;51462;51.422;5.514;2022-07-30T15:01:20;30.70;95.30
24226;DHT22;51462;51.422;5.514;2022-07-30T15:03:46;30.80;94.30
24226;DHT22;51462;51.422;5.514;2022-07-30T15:06:12;30.70;94.10
24226;DHT22;51462;51.422;5.514;2022-07-30T15:08:39;31.00;97.40
24226;DHT22;51462;51.422;5.514;2022-07-30T15:11:05;31.60;98.60
24226;DHT22;51462;51.422;5.514;2022-07-30T15:13:30;31.90;99.10
24226;DHT22;51462;51.422;5.514;2022-07-30T15:15:56;31.60;96.00
24226;DHT22;51462;51.422;5.514;2022-07-30T15:18:21;31.70;94.60
24226;DHT22;51462;51.422;5.514;2022-07-30T15:20:47;31.70;93.80
24226;DHT22;51462;51.422;5.514;2022-07-30T15:23:12;31.20;97.50
24226;DHT22;51462;51.422;5.514;2022-07-30T15:25:39;31.40;92.80
24226;DHT22;51462;51.422;5.514;2022-07-30T15:28:04;31.20;91.60
24226;DHT22;51462;51.422;5.514;2022-07-30T15:30:30;31.60;94.20
24226;DHT22;51462;51.422;5.514;2022-07-30T15:32:56;32.00;97.60
24226;DHT22;51462;51.422;5.514;2022-07-30T15:35:21;32.20;90.50
24226;DHT22;51462;51.422;5.514;2022-07-30T15:37:47;31.90;98.10
24226;DHT22;51462;51.422;5.514;2022-07-30T15:40:13;31.40;95.30
24226;DHT22;51462;51.422;5.514;2022-07-30T15:42:39;32.20;98.10
24226;DHT22;51462;51.422;5.514;2022-07-30T15:45:07;31.70;91.10
24226;DHT22;51462;51.422;5.514;2022-07-30T15:47:33;32.40;93.30
24226;DHT22;51462;51.422;5.514;2022-07-30T15:49:59;32.80;96.40
24226;DHT22;51462;51.422;5.514;2022-07-30T15:52:24;31.60;91.50
24226;DHT22;51462;51.422;5.514;2022-07-30T15:54:50;31.70;98.80
24226;DHT22;51462;51.422;5.514;2022-07-30T15:57:16;31.70;99.90
24226;DHT22;51462;51.422;5.514;2022-07-30T15:59:41;32.10;99.00